Latest Weather Observations for Edinburgh

IDS60801

Issued at 4:01 am CST Monday 24 July 2017 (issued every 30 minutes, with the page automatically refreshed every 10 minutes)

About weather observations | Map of weather stations | Latest weather observations for SA | Other Formats
Station Details ID: 023083 Name: EDINBURGH RAAF Lat: -34.71 Lon: 138.62 Height: 16.54 m
Data from the previous 72 hours. | See also: Recent months at Edinburgh
Date/Time
CST
Temp
°C
App
Temp
°C
Dew
Point
°C
Rel
Hum
%
Delta-T
°C
Wind Press
QNH
hPa
Press
MSL
hPa
Rain since
9am
mm
Dir  Spd
km/h
Gust
km/h
Spd
kts
Gust
kts
24/04:00am 7.5 4.2 6.3 92 0.5 NE 13 13 7 7 1021.2 1021.2 0.0
24/03:30am 6.9 3.5 5.7 92 0.5 NE 13 15 7 8 1021.0 1021.0 0.0
24/03:00am 7.7 4.4 6.5 92 0.5 ENE 13 17 7 9 1021.0 1021.0 0.0
24/02:30am 7.5 4.6 6.4 93 0.5 NE 11 13 6 7 1021.1 1021.1 0.0
24/02:00am 6.7 3.3 5.7 93 0.4 NE 13 17 7 9 1021.3 1021.3 0.0
24/01:30am 6.4 2.9 5.4 93 0.4 NE 13 13 7 7 1021.3 1021.3 0.0
24/01:00am 7.2 4.3 6.3 94 0.4 ENE 11 13 6 7 1021.2 1021.2 0.0
24/12:30am 7.1 4.5 6.0 93 0.5 NE 9 11 5 6 1021.2 1021.2 0.0
24/12:00am 7.3 4.3 6.2 93 0.5 NE 11 11 6 6 1021.2 1021.2 0.0
 
Date/Time
CST
Temp
°C
App
Temp
°C
Dew
Point
°C
Rel
Hum
%
Delta-T
°C
Wind Press
QNH
hPa
Press
MSL
hPa
Rain since
9am
mm
Dir  Spd
km/h
Gust
km/h
Spd
kts
Gust
kts
23/11:30pm 6.8 4.1 5.4 91 0.6 NE 9 13 5 7 1021.2 1021.2 0.0
23/11:00pm 7.3 4.3 6.1 92 0.5 NE 11 13 6 7 1021.3 1021.3 0.0
23/10:30pm 7.7 4.8 6.5 92 0.5 NE 11 13 6 7 1021.2 1021.2 0.0
23/10:00pm 8.5 6.2 7.3 92 0.6 NE 9 11 5 6 1021.0 1021.0 0.0
23/09:30pm 8.0 4.7 6.5 90 0.7 NE 13 15 7 8 1020.8 1020.8 0.0
23/09:00pm 9.3 7.2 8.1 92 0.6 ENE 9 13 5 7 1020.6 1020.6 0.0
23/08:30pm 8.3 5.2 7.1 92 0.6 NNE 13 13 7 7 1020.4 1020.4 0.0
23/08:00pm 9.1 6.9 8.0 93 0.5 NE 9 11 5 6 1020.0 1020.0 0.0
23/07:30pm 9.5 9.0 7.8 89 0.8 CALM 0 0 0 0 1019.6 1019.6 0.0
23/07:00pm 10.5 9.9 9.1 91 0.7 WSW 2 7 1 4 1019.4 1019.4 0.0
23/06:30pm 10.7 7.9 8.6 87 1.0 W 13 13 7 7 1019.1 1019.1 0.0
23/06:00pm 11.9 9.2 9.1 83 1.4 WSW 13 15 7 8 1018.9 1018.9 0.0
23/05:30pm 12.9 9.1 9.2 78 1.9 W 19 24 10 13 1018.6 1018.6 0.0
23/05:00pm 13.9 8.7 8.9 72 2.5 W 26 32 14 17 1018.4 1018.4 0.0
23/04:30pm 14.5 9.5 9.7 73 2.5 W 26 32 14 17 1018.3 1018.3 0.0
23/04:00pm 15.4 9.2 9.5 68 3.1 W 32 39 17 21 1018.0 1018.0 0.0
23/03:30pm 15.9 10.1 9.6 66 3.3 W 30 41 16 22 1017.8 1017.8 0.0
23/03:00pm 16.2 9.9 9.6 65 3.4 W 33 43 18 23 1017.7 1017.7 0.0
23/02:30pm 16.4 10.3 9.6 64 3.5 WNW 32 41 17 22 1017.7 1017.7 0.0
23/02:00pm 16.2 9.5 9.6 65 3.4 W 35 46 19 25 1017.7 1017.7 0.0
23/01:30pm 16.4 9.2 9.3 63 3.7 W 37 46 20 25 1017.7 1017.7 0.0
23/01:00pm 16.3 9.6 9.5 64 3.5 W 35 44 19 24 1017.8 1017.8 0.0
23/12:30pm 16.4 10.1 10.9 70 2.9 WNW 35 46 19 25 1018.1 1018.1 0.0
23/12:00pm 16.5 10.7 10.8 69 3.0 WNW 32 41 17 22 1018.4 1018.4 0.0
23/11:30am 15.5 10.1 10.9 74 2.4 WNW 30 39 16 21 1018.8 1018.8 0.0
23/11:00am 15.6 11.5 11.6 77 2.2 NW 24 32 13 17 1019.0 1019.0 0.0
23/10:30am 14.2 10.1 11.4 83 1.5 NW 24 32 13 17 1019.1 1019.1 0.0
23/10:27am 14.0 9.4 11.2 83 1.5 NW 26 32 14 17 1019.1 1019.1 0.0
23/10:00am 13.2 8.9 10.9 86 1.2 NW 24 32 13 17 1019.0 1019.0 0.0
23/09:30am 12.5 9.2 10.9 90 0.8 NW 19 24 10 13 1018.7 1018.7 0.0
23/09:12am 12.1 8.7 10.5 90 0.8 NNW 19 22 10 12 1018.4 1018.4 0.0
23/09:00am 11.8 8.3 10.2 90 0.8 NNW 19 24 10 13 1018.3 1018.3 0.0
23/08:58am 11.8 8.7 10.4 91 0.7 NNW 17 24 9 13 1018.3 1018.3 0.0
23/08:30am 10.3 6.6 9.4 94 0.4 NNW 19 26 10 14 1018.1 1018.1 0.0
23/08:00am 9.1 5.8 8.2 94 0.4 NNW 15 19 8 10 1017.9 1017.9 0.0
23/07:30am 8.6 6.7 7.7 94 0.4 N 7 13 4 7 1017.7 1017.7 0.0
23/07:04am 7.7 4.9 6.8 94 0.4 NE 11 13 6 7 1017.5 1017.5 0.0
23/07:00am 7.6 4.7 6.7 94 0.4 NE 11 13 6 7 1017.4 1017.4 0.0
23/06:30am 8.1 5.7 7.0 93 0.5 ENE 9 13 5 7 1017.2 1017.2 0.0
23/06:00am 7.5 4.6 6.4 93 0.5 NE 11 11 6 6 1016.9 1016.9 0.0
23/05:30am 8.6 6.3 7.5 93 0.5 N 9 9 5 5 1016.6 1016.6 0.0
23/05:04am 8.6 5.9 7.4 92 0.6 NE 11 13 6 7 1016.6 1016.6 0.0
23/05:00am 8.6 5.9 7.2 91 0.7 NE 11 13 6 7 1016.6 1016.6 0.0
23/04:50am 9.1 6.9 7.9 92 0.6 ENE 9 13 5 7 1016.5 1016.5 0.0
23/04:30am 8.5 6.5 7.3 92 0.6 ENE 7 9 4 5 1016.3 1016.3 0.0
23/04:00am 9.2 7.0 7.8 91 0.7 NNW 9 15 5 8 1016.2 1016.2 0.0
23/03:30am 9.0 7.2 7.8 92 0.6 NNW 7 11 4 6 1016.4 1016.4 0.0
23/03:00am 8.7 6.3 7.2 90 0.7 NNW 9 15 5 8 1016.1 1016.1 0.0
23/02:30am 9.0 6.7 7.3 89 0.8 NNW 9 13 5 7 1016.1 1016.1 0.0
23/02:00am 9.2 6.0 7.0 86 1.0 NW 13 17 7 9 1016.3 1016.3 0.0
23/01:30am 9.4 5.4 6.5 82 1.3 NW 17 20 9 11 1016.3 1016.3 0.0
23/01:00am 8.5 5.0 5.6 82 1.3 NW 13 17 7 9 1016.1 1016.1 0.0
23/12:30am 8.2 4.9 4.6 78 1.6 NNW 11 13 6 7 1016.1 1016.1 0.0
23/12:00am 9.0 6.5 4.6 74 1.9 NNW 7 9 4 5 1016.3 1016.3 0.0
 
Date/Time
CST
Temp
°C
App
Temp
°C
Dew
Point
°C
Rel
Hum
%
Delta-T
°C
Wind Press
QNH
hPa
Press
MSL
hPa
Rain since
9am
mm
Dir  Spd
km/h
Gust
km/h
Spd
kts
Gust
kts
22/11:30pm 9.3 7.0 4.9 74 2.0 N 6 7 3 4 1016.1 1016.1 0.0
22/11:00pm 9.5 5.9 4.9 73 2.1 NNW 13 15 7 8 1016.2 1016.2 0.0
22/10:30pm 10.5 8.3 5.1 69 2.4 N 6 9 3 5 1016.2 1016.2 0.0
22/10:00pm 10.8 8.3 4.7 66 2.8 N 7 11 4 6 1016.0 1016.0 0.0
22/09:30pm 10.4 7.5 4.5 67 2.6 NNE 9 11 5 6 1015.7 1015.7 0.0
22/09:00pm 10.6 7.6 3.9 63 3.0 NNE 9 13 5 7 1015.7 1015.7 0.0
22/08:30pm 10.8 7.8 4.3 64 2.9 NNE 9 11 5 6 1015.3 1015.3 0.0
22/08:00pm 11.1 7.4 4.3 63 3.0 NE 13 15 7 8 1015.0 1015.0 0.0
22/07:30pm 11.4 7.4 4.8 64 3.0 NE 15 17 8 9 1014.9 1014.9 0.0
22/07:00pm 11.9 8.3 5.1 63 3.1 ENE 13 15 7 8 1014.7 1014.7 0.0
22/06:30pm 12.3 8.7 5.2 62 3.3 NE 13 13 7 7 1014.6 1014.6 0.0
22/06:00pm 12.8 9.3 5.5 61 3.4 NNE 13 15 7 8 1014.3 1014.3 0.0
22/05:30pm 13.9 10.4 5.5 57 4.0 N 13 15 7 8 1014.1 1014.1 0.0
22/05:00pm 16.6 11.1 4.0 43 5.9 NNW 22 32 12 17 1014.0 1014.0 0.0
22/04:30pm 17.8 11.5 3.7 39 6.6 NNW 26 35 14 19 1013.9 1013.9 0.0
22/04:00pm 18.1 12.1 3.6 38 6.8 NNW 24 30 13 16 1013.9 1013.9 0.0
22/03:30pm 18.2 11.1 3.7 38 6.8 NNW 30 39 16 21 1013.9 1013.9 0.0
22/03:00pm 18.3 10.8 3.4 37 6.9 NNW 32 41 17 22 1014.2 1014.2 0.0
22/02:30pm 18.4 11.0 4.9 41 6.5 NNW 33 43 18 23 1014.3 1014.3 0.0
22/02:00pm 18.4 10.7 3.5 37 7.0 NNW 33 43 18 23 1014.4 1014.4 0.0
22/01:30pm 18.6 11.1 3.6 37 7.0 NNW 32 44 17 24 1014.9 1014.9 0.0
22/01:00pm 18.9 11.9 4.3 38 7.0 NNW 30 41 16 22 1015.5 1015.5 0.0
22/12:30pm 18.1 9.3 3.6 38 6.8 NNW 39 56 21 30 1015.9 1015.9 0.0
22/12:23pm 18.0 10.4 2.7 36 7.0 N 32 56 17 30 1016.1 1016.1 0.0
22/12:00pm 17.7 9.1 4.6 42 6.2 NNW 39 52 21 28 1016.5 1016.5 0.0
22/11:43am 17.6 10.2 4.9 43 6.1 N 33 52 18 28 1017.0 1017.0 0.0
22/11:30am 16.8 8.9 4.2 43 5.9 N 35 46 19 25 1017.2 1017.2 0.0
22/11:00am 15.9 8.9 4.3 46 5.4 NNW 30 39 16 21 1017.8 1017.8 0.0
22/10:30am 15.0 7.6 3.8 47 5.1 N 32 44 17 24 1017.8 1017.8 0.0
22/10:07am 14.2 7.5 3.4 48 4.9 N 28 46 15 25 1018.3 1018.3 0.0
22/10:00am 13.8 7.5 3.9 51 4.5 N 26 35 14 19 1018.3 1018.3 0.0
22/09:30am 12.5 6.2 3.5 54 4.0 N 26 37 14 20 1018.4 1018.4 0.0
22/09:00am 12.2 6.3 3.7 56 3.8 N 24 33 13 18 1018.5 1018.5 0.0
22/08:30am 11.3 6.0 3.1 57 3.6 N 20 28 11 15 1018.6 1018.6 0.0
22/08:00am 11.3 6.2 3.1 57 3.6 N 19 26 10 14 1019.0 1019.0 0.0
22/07:30am 11.1 5.4 2.7 56 3.6 N 22 28 12 15 1018.9 1018.9 0.0
22/07:00am 10.8 5.7 2.9 58 3.4 N 19 26 10 14 1018.7 1018.7 0.0
22/06:30am 10.9 6.2 3.0 58 3.4 NNE 17 24 9 13 1018.6 1018.6 0.0
22/06:00am 11.7 6.4 3.0 55 3.8 NNE 20 26 11 14 1018.5 1018.5 0.0
22/05:30am 11.1 6.4 3.2 58 3.4 NNE 17 20 9 11 1018.1 1018.1 0.0
22/05:00am 10.7 6.1 3.5 61 3.2 NNE 17 22 9 12 1018.1 1018.1 0.0
22/04:30am 10.4 6.5 3.4 62 3.0 NE 13 15 7 8 1018.5 1018.5 0.0
22/04:00am 10.1 6.7 3.8 65 2.8 NNE 11 13 6 7 1018.8 1018.8 0.0
22/03:30am 9.8 7.3 3.5 65 2.7 N 6 9 3 5 1019.0 1019.0 0.0
22/03:00am 10.7 7.9 3.3 60 3.2 N 7 11 4 6 1019.0 1019.0 0.0
22/02:30am 12.1 9.2 2.8 53 4.1 NNE 7 11 4 6 1018.6 1018.6 0.0
22/02:00am 12.1 8.1 2.8 53 4.1 ENE 13 17 7 9 1018.3 1018.3 0.0
22/01:30am 12.0 7.3 3.0 54 3.9 NE 17 22 9 12 1018.2 1018.2 0.0
22/01:00am 11.5 7.6 3.3 57 3.6 NE 13 17 7 9 1018.2 1018.2 0.0
22/12:30am 11.5 6.4 2.8 55 3.8 NE 19 24 10 13 1017.6 1017.6 0.0
22/12:00am 11.3 6.0 3.1 57 3.6 NE 20 24 11 13 1017.8 1017.8 0.0
 
Date/Time
CST
Temp
°C
App
Temp
°C
Dew
Point
°C
Rel
Hum
%
Delta-T
°C
Wind Press
QNH
hPa
Press
MSL
hPa
Rain since
9am
mm
Dir  Spd
km/h
Gust
km/h
Spd
kts
Gust
kts
21/11:30pm 11.4 6.3 3.2 57 3.6 NE 19 22 10 12 1017.6 1017.6 0.0
21/11:00pm 12.3 7.1 3.3 54 4.0 NE 20 28 11 15 1018.0 1018.0 0.0
21/10:30pm 12.0 6.4 3.5 56 3.8 NE 22 26 12 14 1018.3 1018.3 0.0
21/10:00pm 12.1 7.0 4.1 58 3.6 NE 20 24 11 13 1018.5 1018.5 0.0
21/09:30pm 12.5 7.4 4.2 57 3.7 NE 20 24 11 13 1018.7 1018.7 0.0
21/09:00pm 12.8 7.8 4.5 57 3.8 NE 20 28 11 15 1018.8 1018.8 0.0
21/08:30pm 12.2 7.4 4.9 61 3.3 ENE 19 24 10 13 1018.8 1018.8 0.0
21/08:00pm 11.6 7.2 5.0 64 3.0 NE 17 20 9 11 1019.0 1019.0 0.0
21/07:30pm 11.0 7.0 5.1 67 2.7 NE 15 17 8 9 1019.0 1019.0 0.0
21/07:00pm 12.1 7.8 5.3 63 3.1 NE 17 20 9 11 1018.9 1018.9 0.0
21/06:30pm 12.9 8.3 5.6 61 3.4 ENE 19 20 10 11 1018.8 1018.8 0.0
21/06:00pm 11.9 8.6 6.2 68 2.7 NE 13 15 7 8 1019.1 1019.1 0.0
21/05:30pm 12.6 8.9 6.4 66 2.9 NNE 15 17 8 9 1019.1 1019.1 0.0
21/05:00pm 15.0 10.9 6.0 55 4.3 NNE 17 22 9 12 1019.0 1019.0 0.0
21/04:30pm 16.3 11.6 5.9 50 5.0 N 20 28 11 15 1018.9 1018.9 0.0
21/04:00pm 16.8 11.5 5.1 46 5.6 N 22 32 12 17 1018.8 1018.8 0.0
21/03:30pm 17.0 11.1 4.0 42 6.1 N 24 33 13 18 1018.8 1018.8 0.0
21/03:00pm 17.4 11.6 4.4 42 6.1 NNW 24 32 13 17 1019.1 1019.1 0.0
21/02:30pm 17.3 11.8 3.9 41 6.3 NNW 22 32 12 17 1018.9 1018.9 0.0
21/02:00pm 17.5 12.0 5.8 46 5.7 N 24 33 13 18 1018.9 1018.9 0.0
21/01:30pm 16.9 11.3 5.2 46 5.6 N 24 32 13 17 1019.3 1019.3 0.0
21/01:00pm 16.8 10.9 3.8 42 6.0 N 24 37 13 20 1019.6 1019.6 0.0
21/12:30pm 16.5 10.5 5.2 47 5.4 N 26 39 14 21 1020.2 1020.2 0.0
21/12:00pm 16.4 10.5 4.1 44 5.7 N 24 32 13 17 1020.9 1020.9 0.0
21/11:30am 15.8 11.0 5.4 50 4.9 N 20 28 11 15 1021.3 1021.3 0.0
21/11:00am 14.5 9.8 6.1 57 4.0 N 20 28 11 15 1021.7 1021.7 0.0
21/10:30am 13.5 8.0 4.1 53 4.3 NNE 22 28 12 15 1022.1 1022.1 0.0
21/10:00am 12.4 6.6 4.4 58 3.6 NNE 24 32 13 17 1022.1 1022.1 0.0
21/09:30am 11.5 5.9 3.5 58 3.5 NE 22 30 12 16 1022.0 1022.0 0.0
21/09:00am 10.6 5.5 2.9 59 3.3 NE 19 24 10 13 1021.9 1021.9 0.0
21/08:30am 9.3 4.2 3.1 65 2.6 NE 19 22 10 12 1021.7 1021.7 0.0
21/08:00am 7.6 2.8 2.5 70 2.1 NE 17 20 9 11 1021.7 1021.7 0.0
21/07:30am 7.0 2.1 2.1 71 2.0 NE 17 20 9 11 1021.4 1021.4 0.0
21/07:00am 7.2 2.0 2.3 71 2.0 NE 19 22 10 12 1021.2 1021.2 0.0
21/06:30am 7.2 1.8 2.3 71 2.0 NE 20 24 11 13 1021.0 1021.0 0.0
21/06:00am 7.3 2.1 2.6 72 1.9 NE 19 22 10 12 1021.1 1021.1 0.0
21/05:30am 7.3 2.2 3.0 74 1.8 NE 19 22 10 12 1020.8 1020.8 0.0
21/05:00am 7.1 2.0 3.3 77 1.6 NE 19 20 10 11 1020.6 1020.6 0.0
21/04:30am 6.9 1.8 3.3 78 1.5 NE 19 24 10 13 1020.6 1020.6 0.0

Other Formats:

Comma delimited format used in spreadsheet applications
http://www.bom.gov.au/fwo/IDS60801/IDS60801.95676.axf

JavaScript Object Notation format (JSON) in row-major order
http://www.bom.gov.au/fwo/IDS60801/IDS60801.95676.json